CYER

Fort Severn Airport

Fort Severn, Ontario, Canada
METAR CYER 171800Z AUTO 29011G28KT 9SM FEW019 M04/M07 A3002 RMK SLP167
Observed Flight Rules
Oct-17 @ 18:00 UTC (21 minutes ago) Visual Flight Rules
Wind Visibility Clouds
290° at 11 knots
 Gusting to 28 knots
9 miles
  • Few at 1,900' AGL
Temperatures Readings
Current -4°C / 25°F
Dewpoint -7°C / 19°F
Humidity 80%
Altimeter 30.02" Hg
Pressure 1016.7 hPa
Elevation 16
METAR CYER 171800Z AUTO 29011G28KT 9SM FEW019 M04/M07 A3002 RMK SLP167
Observed Flight Rules
Oct-17 @ 18:00 UTC
(21 minutes ago)
VFR
Wind Visibility
290° at 11 knots
 Gusting to 28 knots
9 miles
Clouds
  • Few at 1,900' AGL
Temperature Dewpoint
-4°C / 25°F -7°C / 19°F
Humidity Altimeter Pressure
80% 30.02" Hg 1016.7 hPa